Time;durP1;ratioP1;P1;durP2;ratioP2;P2;SDS_P1;SDS_P2;PMS_P1;PMS_P2;Temp;Humidity;BMP_temperature;BMP_pressure;BME280_temperature;BME280_humidity;BME280_pressure;Samples;Min_cycle;Max_cycle;Signal;HPM_P1;HPM_P2
2022/08/02 00:01:02;;;;;;;4.63;3.88;;;;;;;20.61;83.85;96863.56;5056924;28;20241;-56
2022/08/02 00:03:29;;;;;;;4.13;3.83;;;;;;;20.43;86.29;96865.94;5057047;28;20210;-55
2022/08/02 00:05:56;;;;;;;3.90;3.53;;;;;;;20.42;86.24;96864.28;5056429;28;20211;-55
2022/08/02 00:08:22;;;;;;;6.00;5.50;;;;;;;20.44;86.27;96856.03;5053937;28;20310;-54
2022/08/02 00:10:49;;;;;;;4.63;4.10;;;;;;;20.33;86.65;96857.41;5056665;28;20285;-56
2022/08/02 00:13:17;;;;;;;5.13;4.63;;;;;;;20.24;88.10;96850.50;5054998;28;20297;-54
2022/08/02 00:15:44;;;;;;;5.15;4.18;;;;;;;20.15;88.18;96847.16;5054414;28;20266;-56
2022/08/02 00:18:10;;;;;;;4.53;4.13;;;;;;;20.24;87.41;96845.13;5054786;28;20290;-56
2022/08/02 00:20:37;;;;;;;4.25;3.90;;;;;;;20.29;86.21;96848.94;5054859;28;20601;-57
2022/08/02 00:23:04;;;;;;;5.70;4.20;;;;;;;20.15;88.15;96849.00;5055015;28;20235;-56
2022/08/02 00:25:30;;;;;;;4.85;4.32;;;;;;;20.07;88.83;96850.00;5055205;28;20547;-57
2022/08/02 00:27:57;;;;;;;4.82;4.43;;;;;;;20.02;90.22;96847.06;5041621;28;20238;-57
2022/08/02 00:30:25;;;;;;;4.53;4.22;;;;;;;19.91;90.86;96844.91;5054337;28;20302;-57
2022/08/02 00:32:52;;;;;;;6.05;4.50;;;;;;;19.84;91.26;96844.88;5055489;28;20207;-58
2022/08/02 00:35:19;;;;;;;4.82;4.43;;;;;;;19.82;92.07;96852.31;5055147;28;20730;-57
2022/08/02 00:37:45;;;;;;;5.53;4.60;;;;;;;19.82;92.42;96848.78;5057011;28;20203;-57
2022/08/02 00:40:13;;;;;;;4.53;4.22;;;;;;;19.91;91.15;96849.47;5058635;28;20246;-59
2022/08/02 00:42:39;;;;;;;5.75;5.25;;;;;;;19.77;91.93;96849.38;5057757;28;20245;-60
2022/08/02 00:45:07;;;;;;;5.05;4.65;;;;;;;19.73;91.82;96850.78;5058144;28;20220;-57
2022/08/02 00:47:35;;;;;;;4.85;4.35;;;;;;;19.73;92.01;96842.72;5057172;28;20218;-56
2022/08/02 00:50:01;;;;;;;5.45;4.95;;;;;;;19.67;92.17;96848.06;5057983;28;20226;-56
2022/08/02 00:52:28;;;;;;;5.35;4.07;;;;;;;19.52;93.28;96840.09;5045126;28;20246;-54
2022/08/02 00:54:56;;;;;;;5.18;4.78;;;;;;;19.49;93.50;96835.13;5057273;28;20313;-54
2022/08/02 00:57:23;;;;;;;4.90;4.50;;;;;;;19.47;93.00;96837.16;5057556;28;20294;-54
2022/08/02 00:59:50;;;;;;;5.00;4.60;;;;;;;19.59;91.04;96827.56;5058068;28;20206;-54
2022/08/02 01:02:17;;;;;;;5.15;4.72;;;;;;;19.52;91.99;96828.56;5058579;28;20266;-57
2022/08/02 01:04:45;;;;;;;5.80;4.72;;;;;;;19.43;93.52;96830.53;5057503;28;20250;-56
2022/08/02 01:07:13;;;;;;;4.82;4.40;;;;;;;19.43;94.11;96829.69;5057679;28;20282;-54
2022/08/02 01:09:39;;;;;;;5.25;4.85;;;;;;;19.38;93.80;96822.19;5057901;28;20203;-55
2022/08/02 01:12:07;;;;;;;5.35;4.85;;;;;;;19.37;93.71;96820.56;5058165;28;20294;-54
2022/08/02 01:14:34;;;;;;;5.38;5.07;;;;;;;19.36;93.52;96824.25;5052371;28;20258;-55
2022/08/02 01:17:03;;;;;;;5.00;4.60;;;;;;;19.26;94.53;96821.91;5057476;28;20203;-55
2022/08/02 01:19:35;;;;;;;5.32;4.93;;;;;;;19.19;95.13;96825.53;5057564;28;20218;-55
2022/08/02 01:22:27;;;;;;;5.43;4.93;;;;;;;19.17;95.00;96824.88;5062897;28;20211;-55
2022/08/02 01:25:08;;;;;;;6.22;5.10;;;;;;;19.16;94.89;96823.25;5049411;28;20198;-56
2022/08/02 01:27:43;;;;;;;5.45;4.95;;;;;;;19.17;93.87;96822.22;5049422;28;20218;-55
2022/08/02 01:30:11;;;;;;;5.03;4.57;;;;;;;19.11;94.75;96825.66;5057546;28;20286;-55
2022/08/02 01:32:43;;;;;;;6.20;5.10;;;;;;;19.11;94.21;96829.19;5056217;28;20714;-54
2022/08/02 01:35:12;;;;;;;4.93;4.63;;;;;;;19.09;94.19;96830.41;5056369;28;20246;-54
2022/08/02 01:37:44;;;;;;;5.05;4.72;;;;;;;19.02;94.51;96824.97;5056715;28;20627;-55
2022/08/02 01:40:13;;;;;;;7.32;4.78;;;;;;;19.04;94.40;96820.25;5056770;28;20203;-54
2022/08/02 01:42:43;;;;;;;5.43;5.00;;;;;;;18.85;97.50;96829.72;5056554;28;20290;-55
2022/08/02 01:45:12;;;;;;;5.38;4.90;;;;;;;18.82;97.71;96821.25;5056139;28;20682;-56
2022/08/02 01:47:40;;;;;;;5.13;4.72;;;;;;;18.87;96.45;96814.31;5056079;28;20282;-55
2022/08/02 01:50:08;;;;;;;5.63;5.13;;;;;;;18.84;96.80;96812.03;5056398;28;20225;-55
2022/08/02 01:52:37;;;;;;;5.20;4.80;;;;;;;18.81;97.09;96815.06;5056466;28;20291;-56
2022/08/02 01:55:07;;;;;;;5.65;5.07;;;;;;;18.74;98.24;96822.19;5056116;28;20219;-54
2022/08/02 01:57:37;;;;;;;5.57;5.10;;;;;;;18.72;98.79;96821.56;5056773;28;20303;-55
2022/08/02 02:00:06;;;;;;;6.00;5.50;;;;;;;18.74;98.49;96822.19;5056986;28;20265;-55
2022/08/02 02:02:36;;;;;;;5.93;5.40;;;;;;;18.77;97.18;96810.28;5056961;28;20211;-55
2022/08/02 02:05:03;;;;;;;6.18;5.68;;;;;;;18.65;99.10;96809.94;5056822;28;20195;-54
2022/08/02 02:07:34;;;;;;;6.60;6.00;;;;;;;18.58;100.00;96814.41;5056758;28;20616;-56
2022/08/02 02:10:03;;;;;;;5.82;5.38;;;;;;;18.71;98.21;96817.22;5053451;28;20204;-54
2022/08/02 02:12:31;;;;;;;5.82;5.32;;;;;;;18.65;99.21;96823.34;5047169;28;20838;-55
2022/08/02 02:14:59;;;;;;;5.97;5.47;;;;;;;18.55;100.00;96820.13;5056265;28;20258;-56
2022/08/02 02:17:27;;;;;;;6.63;6.00;;;;;;;18.60;100.00;96812.34;5055960;28;20235;-55
2022/08/02 02:19:55;;;;;;;6.15;5.53;;;;;;;18.59;99.83;96818.75;5056465;28;20289;-55
2022/08/02 02:22:22;;;;;;;6.18;5.68;;;;;;;18.52;100.00;96815.16;5055875;28;20203;-56
2022/08/02 02:24:49;;;;;;;6.43;5.85;;;;;;;18.47;100.00;96806.81;5042635;28;20231;-55
2022/08/02 02:27:17;;;;;;;6.75;5.95;;;;;;;18.48;100.00;96803.13;5055929;28;20410;-55
2022/08/02 02:29:45;;;;;;;6.22;5.40;;;;;;;18.54;100.00;96802.38;5055728;28;20277;-55
2022/08/02 02:32:12;;;;;;;8.15;5.72;;;;;;;18.49;100.00;96795.91;5055276;28;20204;-55
2022/08/02 02:34:41;;;;;;;6.22;5.70;;;;;;;18.44;100.00;96791.13;5055150;28;20622;-54
2022/08/02 02:37:21;;;;;;;6.20;5.70;;;;;;;18.42;100.00;96795.84;5055320;28;20238;-55
2022/08/02 02:39:50;;;;;;;6.45;5.50;;;;;;;18.52;100.00;96792.91;5055433;28;20600;-54
2022/08/02 02:42:18;;;;;;;6.15;5.65;;;;;;;18.40;100.00;96795.19;5054919;28;20614;-55
2022/08/02 02:44:46;;;;;;;9.43;6.18;;;;;;;18.34;100.00;96793.28;5055295;28;20282;-55
2022/08/02 02:47:14;;;;;;;6.53;6.00;;;;;;;18.30;100.00;96800.00;5051936;28;20235;-55
2022/08/02 02:49:42;;;;;;;6.53;5.93;;;;;;;18.34;100.00;96799.47;5046166;28;20234;-54
2022/08/02 02:52:13;;;;;;;6.45;5.97;;;;;;;18.34;100.00;96794.09;5054921;28;20239;-54
2022/08/02 02:54:40;;;;;;;7.07;5.80;;;;;;;18.30;100.00;96789.31;5054837;28;20203;-56
2022/08/02 02:57:08;;;;;;;6.03;5.53;;;;;;;18.35;100.00;96792.25;5054980;28;20239;-55
2022/08/02 02:59:35;;;;;;;6.50;5.85;;;;;;;18.38;100.00;96802.59;5043140;28;20207;-55
2022/08/02 03:02:02;;;;;;;6.43;5.90;;;;;;;18.45;100.00;96798.16;5053769;28;20307;-54
2022/08/02 03:04:29;;;;;;;6.10;5.57;;;;;;;18.30;100.00;96800.84;5055255;28;20239;-55
2022/08/02 03:06:56;;;;;;;5.75;5.35;;;;;;;18.30;100.00;96795.50;5055212;28;20215;-55
2022/08/02 03:09:24;;;;;;;5.93;5.32;;;;;;;18.26;100.00;96793.38;5055722;28;20587;-55
2022/08/02 03:11:51;;;;;;;5.85;5.10;;;;;;;18.23;100.00;96793.75;5054866;28;20287;-56
2022/08/02 03:14:18;;;;;;;6.20;5.68;;;;;;;18.20;100.00;96788.78;5055233;28;20298;-55
2022/08/02 03:16:46;;;;;;;5.85;5.45;;;;;;;18.24;100.00;96784.72;5054832;28;20324;-55
2022/08/02 03:19:13;;;;;;;5.75;5.25;;;;;;;18.27;100.00;96787.00;5055522;28;20245;-55
2022/08/02 03:21:42;;;;;;;6.25;5.75;;;;;;;18.29;100.00;96787.63;5055363;28;20257;-55
2022/08/02 03:24:09;;;;;;;6.05;5.45;;;;;;;18.19;100.00;96782.59;5055558;28;20239;-55
2022/08/02 03:26:37;;;;;;;6.55;5.88;;;;;;;18.16;100.00;96782.97;5067747;28;20210;-55
2022/08/02 03:29:04;;;;;;;6.57;5.97;;;;;;;18.16;100.00;96780.28;5066368;28;20207;-55
2022/08/02 03:31:31;;;;;;;6.28;5.68;;;;;;;18.13;100.00;96777.16;5057978;28;20207;-55
2022/08/02 03:33:59;;;;;;;6.13;5.63;;;;;;;18.12;100.00;96764.78;5054755;28;20266;-55
2022/08/02 03:36:27;;;;;;;6.05;5.45;;;;;;;18.15;100.00;96767.06;5054595;28;20292;-54
2022/08/02 03:38:55;;;;;;;6.40;5.80;;;;;;;18.20;100.00;96764.69;5054481;28;20238;-56
2022/08/02 03:41:23;;;;;;;7.80;6.07;;;;;;;18.11;100.00;96765.78;5054868;28;20269;-55
2022/08/02 03:43:51;;;;;;;6.03;5.53;;;;;;;18.13;100.00;96767.28;5054969;28;20256;-54
2022/08/02 03:46:20;;;;;;;6.60;5.97;;;;;;;18.10;100.00;96764.16;5055464;28;20234;-55
2022/08/02 03:48:49;;;;;;;6.70;5.88;;;;;;;18.07;100.00;96767.16;5054956;28;20235;-55
2022/08/02 03:51:16;;;;;;;5.78;5.38;;;;;;;18.07;100.00;96764.50;5055143;28;20203;-55
2022/08/02 03:53:43;;;;;;;6.22;5.72;;;;;;;18.06;100.00;96770.88;5055661;28;20276;-57
2022/08/02 03:56:10;;;;;;;5.63;5.07;;;;;;;18.06;100.00;96765.53;5055233;28;20259;-55
2022/08/02 03:58:36;;;;;;;5.50;5.00;;;;;;;18.04;100.00;96763.03;5054800;28;20214;-55
2022/08/02 04:01:04;;;;;;;4.97;4.57;;;;;;;18.07;100.00;96756.47;5054950;28;20243;-56
2022/08/02 04:03:31;;;;;;;5.90;5.13;;;;;;;18.02;100.00;96765.06;5055193;28;20249;-54
2022/08/02 04:05:58;;;;;;;5.40;4.43;;;;;;;18.10;100.00;96772.19;5054859;28;20601;-54
2022/08/02 04:08:25;;;;;;;5.72;5.32;;;;;;;18.06;100.00;96768.22;5041292;28;20303;-54
2022/08/02 04:13:37;;;;;;;5.53;5.00;;;;;;;18.06;100.00;96776.25;5058159;28;20210;-55
2022/08/02 04:16:10;;;;;;;4.53;4.22;;;;;;;17.99;100.00;96778.00;5058176;28;20229;-54
2022/08/02 04:18:41;;;;;;;4.85;4.45;;;;;;;17.95;100.00;96774.03;5059099;28;20207;-54
2022/08/02 04:21:09;;;;;;;4.82;4.50;;;;;;;17.94;100.00;96777.72;5057794;28;20243;-54
2022/08/02 04:23:37;;;;;;;4.93;4.55;;;;;;;18.04;100.00;96781.75;5057833;28;20278;-55
2022/08/02 04:26:04;;;;;;;5.03;4.63;;;;;;;17.97;100.00;96788.03;5057979;28;20296;-56
2022/08/02 04:28:31;;;;;;;4.75;4.43;;;;;;;17.99;100.00;96788.69;5057624;28;20708;-55
2022/08/02 04:30:58;;;;;;;5.13;4.60;;;;;;;18.01;100.00;96792.00;5055634;28;20242;-55
2022/08/02 04:33:27;;;;;;;5.40;5.00;;;;;;;18.16;100.00;96787.47;5058266;28;20218;-54
2022/08/02 04:35:54;;;;;;;5.22;4.35;;;;;;;18.25;100.00;96802.41;5053541;28;20323;-55
2022/08/02 04:38:21;;;;;;;5.32;4.93;;;;;;;18.22;100.00;96798.28;5050615;28;20215;-56
2022/08/02 04:40:52;;;;;;;5.45;4.90;;;;;;;18.25;100.00;96797.06;5057864;28;20253;-56
2022/08/02 04:43:19;;;;;;;4.93;4.53;;;;;;;18.38;100.00;96799.91;5057898;28;20207;-55
2022/08/02 04:45:47;;;;;;;5.55;5.15;;;;;;;18.45;100.00;96787.44;5057570;28;20233;-54
2022/08/02 04:48:13;;;;;;;5.35;4.95;;;;;;;18.51;100.00;96792.06;5057386;28;20327;-54
2022/08/02 04:50:41;;;;;;;7.68;5.03;;;;;;;18.61;100.00;96797.94;5057403;28;20249;-55
2022/08/02 04:53:08;;;;;;;6.45;4.78;;;;;;;18.79;100.00;96801.03;5058496;28;20261;-55
2022/08/02 04:55:35;;;;;;;5.70;5.20;;;;;;;19.22;100.00;96806.38;5050808;28;20663;-55
2022/08/02 04:58:01;;;;;;;5.53;5.03;;;;;;;19.63;100.00;96807.38;5057773;28;20283;-55
2022/08/02 05:00:29;;;;;;;5.05;4.72;;;;;;;20.04;97.92;96807.44;5044448;28;20207;-55
2022/08/02 05:02:55;;;;;;;6.55;5.10;;;;;;;20.43;96.79;96814.06;5057949;28;20210;-56
2022/08/02 05:05:22;;;;;;;5.60;5.20;;;;;;;20.42;95.31;96810.53;5057808;28;20231;-55
2022/08/02 05:07:50;;;;;;;6.15;5.63;;;;;;;20.43;96.67;96822.97;5057440;28;20645;-55
2022/08/02 05:10:17;;;;;;;6.30;5.75;;;;;;;20.38;96.91;96816.50;5057489;28;20666;-55
2022/08/02 05:12:44;;;;;;;5.88;5.40;;;;;;;20.38;96.67;96820.03;5057309;28;20199;-54
2022/08/02 05:15:12;;;;;;;6.18;5.57;;;;;;;20.44;96.62;96819.22;5057038;28;20640;-55
2022/08/02 05:17:39;;;;;;;6.45;5.95;;;;;;;20.69;96.79;96816.88;5057511;28;20217;-55
2022/08/02 05:20:06;;;;;;;7.03;5.38;;;;;;;21.12;94.36;96817.38;5057818;28;20239;-55
2022/08/02 05:22:33;;;;;;;6.80;6.20;;;;;;;21.44;90.20;96821.97;5056964;28;20253;-55
2022/08/02 05:25:01;;;;;;;6.55;5.90;;;;;;;21.64;89.45;96825.50;5057686;28;20290;-58
2022/08/02 05:27:27;;;;;;;6.25;5.75;;;;;;;21.93;86.08;96818.88;5058138;28;20242;-55
2022/08/02 05:29:54;;;;;;;7.05;5.60;;;;;;;21.95;86.76;96816.81;5057932;28;20222;-55
2022/08/02 05:32:21;;;;;;;8.30;6.13;;;;;;;21.95;87.86;96813.28;5060760;28;20218;-55
2022/08/02 05:34:47;;;;;;;5.78;5.38;;;;;;;22.07;86.86;96815.13;5065524;28;20298;-56
2022/08/02 05:37:14;;;;;;;9.05;6.15;;;;;;;21.83;88.56;96813.06;5063477;28;20619;-56
2022/08/02 05:39:41;;;;;;;6.40;5.80;;;;;;;22.02;87.35;96814.94;5062076;28;20214;-56
2022/08/02 05:42:09;;;;;;;6.72;6.07;;;;;;;21.86;86.51;96815.31;5066347;28;20575;-55
2022/08/02 05:44:35;;;;;;;6.70;6.20;;;;;;;21.99;87.42;96815.34;5062569;28;20583;-54
2022/08/02 05:47:02;;;;;;;6.50;6.00;;;;;;;22.04;86.33;96817.41;5066899;28;20211;-55
2022/08/02 05:49:29;;;;;;;6.93;6.40;;;;;;;22.10;87.12;96821.97;5071261;28;20226;-56
2022/08/02 05:52:03;;;;;;;7.45;6.28;;;;;;;22.34;86.55;96813.19;5060252;28;20203;-55
2022/08/02 05:54:37;;;;;;;6.95;6.00;;;;;;;22.65;85.04;96815.97;5075440;28;20171;-55
2022/08/02 05:57:06;;;;;;;6.13;5.60;;;;;;;22.59;84.65;96818.69;5079513;28;20218;-56
2022/08/02 05:59:41;;;;;;;5.72;5.32;;;;;;;23.05;82.24;96815.78;5078768;28;20196;-55
2022/08/02 06:02:17;;;;;;;6.93;5.90;;;;;;;22.96;81.77;96811.66;5057525;28;20182;-55
2022/08/02 06:04:50;;;;;;;6.70;6.03;;;;;;;23.33;80.96;96818.91;5073347;28;20190;-56
2022/08/02 06:07:19;;;;;;;7.30;5.10;;;;;;;23.67;79.45;96821.16;5076374;28;20651;-56
2022/08/02 06:09:46;;;;;;;5.30;4.90;;;;;;;23.79;77.89;96819.41;5078280;28;20190;-55
2022/08/02 06:12:14;;;;;;;5.25;4.75;;;;;;;23.84;76.42;96826.03;5078090;28;20190;-55
2022/08/02 06:14:42;;;;;;;4.60;4.30;;;;;;;23.75;76.24;96815.50;5078266;28;20197;-56
2022/08/02 06:17:09;;;;;;;4.68;4.38;;;;;;;23.83;74.87;96819.78;5078246;28;20249;-56
2022/08/02 06:19:38;;;;;;;4.95;4.55;;;;;;;23.94;74.56;96820.94;5074531;28;20223;-56
2022/08/02 06:22:14;;;;;;;5.10;4.53;;;;;;;23.89;75.92;96810.78;5056226;28;20210;-55
2022/08/02 06:24:43;;;;;;;5.90;5.07;;;;;;;23.66;77.50;96808.72;5057004;28;20206;-56
2022/08/02 06:27:10;;;;;;;7.38;5.25;;;;;;;23.93;77.84;96813.88;5057435;28;20238;-56
2022/08/02 06:29:37;;;;;;;5.55;5.07;;;;;;;23.98;74.41;96816.75;5056908;28;20233;-56
2022/08/02 06:32:07;;;;;;;5.68;5.18;;;;;;;24.27;74.63;96816.03;5056172;28;20294;-55
2022/08/02 06:34:36;;;;;;;5.75;5.18;;;;;;;24.34;73.99;96811.38;5055903;28;20234;-55
2022/08/02 06:37:11;;;;;;;5.90;5.30;;;;;;;24.57;71.91;96816.94;5055998;28;20255;-56
2022/08/02 06:39:44;;;;;;;5.75;5.28;;;;;;;24.48;70.17;96817.50;5056370;28;20214;-55
2022/08/02 06:42:13;;;;;;;5.72;4.97;;;;;;;24.31;72.69;96816.41;5056433;28;20218;-55
2022/08/02 06:44:39;;;;;;;5.60;5.00;;;;;;;24.23;73.47;96826.47;5046126;28;20207;-56
2022/08/02 06:47:07;;;;;;;5.30;4.90;;;;;;;24.56;72.65;96819.88;5055319;28;20309;-56
2022/08/02 06:49:34;;;;;;;5.70;5.20;;;;;;;24.58;72.38;96813.19;5057163;28;20239;-55
2022/08/02 06:52:02;;;;;;;10.63;4.80;;;;;;;24.53;72.05;96814.91;5055807;28;20294;-55
2022/08/02 06:54:29;;;;;;;4.80;4.38;;;;;;;24.27;72.72;96810.63;5055637;28;20210;-54
2022/08/02 06:56:56;;;;;;;5.35;4.45;;;;;;;24.39;73.00;96813.41;5055501;28;20317;-54
2022/08/02 06:59:22;;;;;;;4.20;3.83;;;;;;;24.39;73.19;96814.25;5055439;28;20307;-55
2022/08/02 07:01:49;;;;;;;4.32;4.03;;;;;;;24.28;72.00;96815.00;5054607;28;20239;-54
2022/08/02 07:04:17;;;;;;;4.50;4.20;;;;;;;24.39;71.25;96819.66;5055155;28;20317;-55
2022/08/02 07:06:44;;;;;;;4.65;3.85;;;;;;;24.43;71.03;96815.44;5056466;28;20290;-55
2022/08/02 07:09:10;;;;;;;4.38;3.97;;;;;;;24.49;70.62;96819.13;5054874;28;20233;-57
2022/08/02 07:11:37;;;;;;;3.95;3.40;;;;;;;24.61;69.88;96811.91;5054424;28;20290;-55
2022/08/02 07:14:03;;;;;;;4.15;3.67;;;;;;;24.62;67.85;96811.66;5054535;28;20608;-56
2022/08/02 07:16:30;;;;;;;3.85;3.55;;;;;;;24.44;71.23;96819.81;5054369;28;20789;-56
2022/08/02 07:18:57;;;;;;;4.15;3.78;;;;;;;24.58;69.66;96818.59;5054756;28;20302;-56
2022/08/02 07:21:25;;;;;;;5.10;3.67;;;;;;;24.70;68.10;96827.59;5054055;28;20549;-56
2022/08/02 07:23:51;;;;;;;4.10;3.70;;;;;;;24.78;68.65;96819.19;5054536;28;20595;-56
2022/08/02 07:26:18;;;;;;;4.22;3.85;;;;;;;24.71;67.98;96825.72;5054362;28;20290;-56
2022/08/02 07:28:44;;;;;;;6.30;3.67;;;;;;;24.86;67.29;96823.47;5054408;28;20207;-56
2022/08/02 07:31:11;;;;;;;3.58;3.30;;;;;;;24.91;65.41;96830.91;5054730;28;20238;-55
2022/08/02 07:33:38;;;;;;;3.70;3.40;;;;;;;25.09;65.30;96820.88;5054787;28;20238;-56
2022/08/02 07:36:07;;;;;;;4.53;3.75;;;;;;;25.42;65.03;96827.69;5054324;28;20217;-55
2022/08/02 07:38:35;;;;;;;3.42;3.22;;;;;;;25.69;65.34;96823.50;5056472;28;20227;-55
2022/08/02 07:41:02;;;;;;;3.53;3.22;;;;;;;25.72;62.74;96826.56;5055674;28;20643;-57
2022/08/02 07:43:29;;;;;;;4.88;2.90;;;;;;;26.16;63.24;96824.38;5054881;28;20211;-56
2022/08/02 07:45:55;;;;;;;4.72;3.00;;;;;;;26.16;59.86;96816.22;5054001;28;20209;-56
2022/08/02 07:48:22;;;;;;;3.03;2.75;;;;;;;26.01;60.22;96824.84;5054220;28;20619;-56
2022/08/02 07:50:49;;;;;;;3.40;3.00;;;;;;;26.24;61.69;96821.34;5054360;28;20260;-56
2022/08/02 07:53:15;;;;;;;7.25;3.63;;;;;;;26.42;60.57;96813.06;5054266;28;20211;-56
2022/08/02 07:55:43;;;;;;;3.47;2.92;;;;;;;26.51;60.60;96817.03;5054473;28;20348;-56
2022/08/02 07:58:11;;;;;;;5.28;2.75;;;;;;;26.75;58.98;96812.38;5054214;28;20258;-56
2022/08/02 08:00:37;;;;;;;2.70;2.50;;;;;;;26.86;57.84;96816.16;5054410;28;20544;-57
2022/08/02 08:03:05;;;;;;;6.57;2.58;;;;;;;27.05;57.87;96809.47;5053942;28;20678;-55
2022/08/02 08:05:31;;;;;;;3.22;2.60;;;;;;;26.98;55.77;96806.09;5053925;28;20206;-56
2022/08/02 08:07:58;;;;;;;2.35;2.22;;;;;;;27.33;58.42;96809.44;5054295;28;20229;-56
2022/08/02 08:10:25;;;;;;;4.20;2.28;;;;;;;27.46;56.95;96817.31;5053511;28;20211;-56
2022/08/02 08:12:54;;;;;;;5.28;2.33;;;;;;;27.58;56.91;96815.38;5054378;28;20234;-57
2022/08/02 08:15:20;;;;;;;3.45;2.00;;;;;;;27.68;55.94;96818.25;5053664;28;20210;-56
2022/08/02 08:17:47;;;;;;;2.78;2.58;;;;;;;27.62;55.98;96821.97;5053908;28;20276;-56
2022/08/02 08:20:14;;;;;;;2.80;2.53;;;;;;;27.76;54.52;96827.06;5042113;28;20621;-56
2022/08/02 08:22:40;;;;;;;2.70;2.50;;;;;;;27.99;55.03;96833.13;5048907;28;20245;-56
2022/08/02 08:25:07;;;;;;;2.78;2.60;;;;;;;27.67;55.58;96830.16;5054187;28;20291;-55
2022/08/02 08:27:34;;;;;;;3.15;2.90;;;;;;;27.61;55.24;96820.31;5052243;28;20250;-56
2022/08/02 08:30:02;;;;;;;3.10;2.80;;;;;;;27.90;55.66;96812.06;5055102;28;20294;-55
2022/08/02 08:32:29;;;;;;;4.10;2.83;;;;;;;27.85;55.02;96820.13;5053853;28;20613;-56
2022/08/02 08:34:55;;;;;;;3.05;2.85;;;;;;;27.91;52.81;96824.59;5053570;28;20290;-54
2022/08/02 08:37:22;;;;;;;3.15;2.92;;;;;;;28.03;54.76;96822.59;5053842;28;20265;-55
2022/08/02 08:39:49;;;;;;;3.00;2.80;;;;;;;27.84;54.61;96821.22;5053986;28;20521;-55
2022/08/02 08:42:16;;;;;;;3.05;2.85;;;;;;;28.16;53.75;96816.84;5053715;28;20207;-56
2022/08/02 08:44:43;;;;;;;3.30;3.08;;;;;;;28.26;55.85;96810.72;5046285;28;20291;-54
2022/08/02 08:47:12;;;;;;;3.38;3.15;;;;;;;28.16;55.66;96812.22;5054326;28;20627;-55
2022/08/02 08:49:41;;;;;;;3.40;3.20;;;;;;;28.56;52.91;96817.41;5053766;28;20636;-56
2022/08/02 08:52:07;;;;;;;3.42;3.13;;;;;;;28.28;51.73;96803.97;5053868;28;20203;-55
2022/08/02 08:54:36;;;;;;;3.10;2.80;;;;;;;28.36;52.01;96808.97;5054175;28;20231;-55
2022/08/02 08:57:04;;;;;;;2.90;2.70;;;;;;;28.45;52.15;96818.34;5053622;28;20237;-55
2022/08/02 08:59:31;;;;;;;3.08;2.88;;;;;;;28.65;53.34;96807.75;5057271;28;20266;-56
2022/08/02 09:01:58;;;;;;;3.95;3.10;;;;;;;28.33;54.27;96805.94;5057502;28;20303;-56
2022/08/02 09:04:26;;;;;;;2.97;2.78;;;;;;;28.62;53.01;96794.66;5056473;28;20227;-55
2022/08/02 09:06:52;;;;;;;2.92;2.78;;;;;;;28.71;52.65;96802.38;5056931;28;20286;-55
2022/08/02 09:09:21;;;;;;;4.18;3.17;;;;;;;28.87;51.09;96804.22;5057396;28;20215;-55
2022/08/02 09:11:48;;;;;;;3.42;3.10;;;;;;;29.06;52.35;96806.34;5057430;28;20324;-55
2022/08/02 09:14:26;;;;;;;4.13;3.47;;;;;;;29.20;51.08;96803.19;5057172;28;20301;-55
2022/08/02 09:16:53;;;;;;;4.47;3.70;;;;;;;28.89;50.67;96796.59;5056913;28;20258;-54
2022/08/02 09:19:21;;;;;;;3.95;3.60;;;;;;;28.72;52.99;96801.31;5057263;28;20311;-55
2022/08/02 09:21:51;;;;;;;4.13;3.83;;;;;;;28.53;53.32;96801.59;5057121;28;20254;-55
2022/08/02 09:24:19;;;;;;;7.35;3.60;;;;;;;28.61;52.21;96801.16;5056665;28;20237;-54
2022/08/02 09:26:47;;;;;;;6.07;3.58;;;;;;;28.70;52.29;96793.38;5056867;28;20203;-54
2022/08/02 09:29:14;;;;;;;4.05;3.60;;;;;;;28.34;52.18;96802.16;5057133;28;20294;-53
2022/08/02 09:31:41;;;;;;;6.28;3.25;;;;;;;28.12;53.62;96799.38;5056817;28;20213;-56
2022/08/02 09:34:10;;;;;;;3.55;3.30;;;;;;;28.27;54.97;96794.16;5056865;28;20245;-55
2022/08/02 09:36:39;;;;;;;3.30;3.10;;;;;;;28.17;53.80;96797.56;5056465;28;20541;-56
2022/08/02 09:39:08;;;;;;;3.78;3.40;;;;;;;28.47;53.88;96796.34;5056639;28;20203;-56
2022/08/02 09:41:36;;;;;;;3.53;3.22;;;;;;;28.63;53.05;96790.81;5056882;28;20314;-56
2022/08/02 09:44:05;;;;;;;3.45;3.15;;;;;;;28.74;52.52;96785.53;5059100;28;20207;-56
2022/08/02 09:46:36;;;;;;;4.40;3.97;;;;;;;29.06;53.91;96786.44;5057042;28;20199;-56
2022/08/02 09:49:04;;;;;;;3.60;3.30;;;;;;;29.25;53.12;96779.56;5057847;28;20324;-56
2022/08/02 09:51:33;;;;;;;3.92;3.63;;;;;;;29.35;50.67;96784.31;5056306;28;20277;-55
2022/08/02 09:54:04;;;;;;;4.20;3.78;;;;;;;29.20;49.60;96789.56;5056476;28;20203;-55
2022/08/02 09:56:45;;;;;;;4.03;3.67;;;;;;;29.40;53.30;96784.38;5056378;28;20205;-54
2022/08/02 09:59:13;;;;;;;5.22;3.95;;;;;;;29.49;53.40;96786.38;5056003;28;20233;-55
2022/08/02 10:01:40;;;;;;;3.85;3.50;;;;;;;29.70;48.73;96778.34;5042776;28;21661;-55
2022/08/02 10:04:09;;;;;;;3.80;3.30;;;;;;;29.68;48.23;96775.91;5055874;28;20207;-55
2022/08/02 10:06:36;;;;;;;3.90;3.35;;;;;;;30.01;49.52;96772.06;5054821;28;20245;-56
2022/08/02 10:09:03;;;;;;;4.55;3.33;;;;;;;30.17;49.63;96776.53;5056081;28;20286;-56
2022/08/02 10:11:30;;;;;;;5.22;4.82;;;;;;;30.35;49.07;96776.09;5056115;28;20297;-56
2022/08/02 10:13:59;;;;;;;3.65;3.45;;;;;;;30.38;47.18;96769.28;5055639;28;20290;-56
2022/08/02 10:16:26;;;;;;;3.33;3.13;;;;;;;30.45;46.95;96768.00;5042196;28;20219;-55
2022/08/02 10:18:55;;;;;;;3.53;3.22;;;;;;;30.68;47.11;96763.19;5055883;28;20255;-55
2022/08/02 10:21:29;;;;;;;3.25;3.05;;;;;;;30.71;46.85;96762.66;5055923;28;20207;-55
2022/08/02 10:24:02;;;;;;;3.67;3.47;;;;;;;30.54;46.23;96765.56;5056001;28;20207;-55
2022/08/02 10:26:30;;;;;;;3.22;2.90;;;;;;;30.93;46.73;96753.13;5055960;28;20221;-56
2022/08/02 10:28:58;;;;;;;3.20;3.00;;;;;;;31.07;46.20;96756.25;5055575;28;20238;-56
2022/08/02 10:31:27;;;;;;;3.10;2.80;;;;;;;31.19;45.98;96743.13;5055441;28;20230;-56
2022/08/02 10:33:56;;;;;;;2.80;2.70;;;;;;;31.35;43.84;96746.72;5055739;28;20234;-57
2022/08/02 10:36:25;;;;;;;3.28;3.08;;;;;;;31.22;42.70;96748.03;5055921;28;20298;-56
2022/08/02 10:38:53;;;;;;;3.30;3.10;;;;;;;31.32;43.79;96737.13;5055769;28;20794;-56
2022/08/02 10:41:45;;;;;;;2.75;2.60;;;;;;;31.44;44.08;96743.16;5055284;28;20294;-55
2022/08/02 10:44:27;;;;;;;3.55;2.97;;;;;;;31.23;42.56;96738.75;5055717;28;20303;-54
2022/08/02 10:47:22;;;;;;;3.10;2.90;;;;;;;31.35;41.45;96733.88;5055510;28;20583;-57
2022/08/02 10:49:50;;;;;;;3.10;2.80;;;;;;;31.50;43.35;96739.31;5055576;28;20699;-56
2022/08/02 10:52:17;;;;;;;2.95;2.75;;;;;;;31.47;44.84;96736.31;5055013;28;20214;-56
2022/08/02 10:54:48;;;;;;;2.97;2.78;;;;;;;31.65;45.47;96735.78;5055250;28;20294;-56
2022/08/02 10:57:20;;;;;;;3.83;3.20;;;;;;;31.84;43.30;96736.06;5055371;28;20250;-56
2022/08/02 10:59:49;;;;;;;3.28;3.08;;;;;;;31.65;40.49;96741.25;5055376;28;20217;-56
2022/08/02 11:02:38;;;;;;;3.10;2.90;;;;;;;31.80;39.89;96738.53;5055282;28;20202;-56
2022/08/02 11:05:08;;;;;;;2.50;2.40;;;;;;;31.92;42.27;96738.25;5055161;28;20215;-56
2022/08/02 11:07:39;;;;;;;3.20;3.00;;;;;;;31.80;40.71;96734.97;5055269;28;20242;-56
2022/08/02 11:10:43;;;;;;;5.90;3.00;;;;;;;31.76;41.79;96721.03;5054806;28;20416;-55
2022/08/02 11:13:12;;;;;;;2.80;2.55;;;;;;;31.94;40.39;96722.38;5054843;28;20253;-57
2022/08/02 11:16:00;;;;;;;4.53;2.75;;;;;;;32.15;39.82;96721.25;5054621;28;20623;-56
2022/08/02 11:19:00;;;;;;;2.65;2.50;;;;;;;32.32;40.52;96715.44;5047471;28;20268;-57
2022/08/02 11:21:28;;;;;;;2.72;2.55;;;;;;;32.40;40.51;96718.44;5053055;28;20209;-56
2022/08/02 11:23:55;;;;;;;3.58;2.50;;;;;;;32.58;40.29;96714.25;5054888;28;20227;-55
2022/08/02 11:26:41;;;;;;;3.00;2.72;;;;;;;32.43;40.90;96711.56;5054457;28;20235;-56
2022/08/02 11:29:08;;;;;;;2.67;2.50;;;;;;;32.08;40.12;96709.78;5053841;28;20697;-56
2022/08/02 11:31:41;;;;;;;2.60;2.50;;;;;;;32.15;40.17;96713.03;5054650;28;20293;-55
2022/08/02 11:34:08;;;;;;;2.78;2.58;;;;;;;32.01;41.67;96706.47;5053967;28;20234;-56
2022/08/02 11:36:46;;;;;;;3.70;2.65;;;;;;;32.18;39.40;96700.72;5054360;28;20205;-56
2022/08/02 11:39:15;;;;;;;3.35;2.33;;;;;;;32.27;40.35;96699.06;5054174;28;20602;-56
2022/08/02 11:41:42;;;;;;;2.47;2.28;;;;;;;32.08;39.05;96698.00;5054393;28;20285;-56